Time;durP1;ratioP1;P1;durP2;ratioP2;P2;SDS_P1;SDS_P2;PMS_P1;PMS_P2;Temp;Humidity;BMP_temperature;BMP_pressure;BME280_temperature;BME280_humidity;BME280_pressure;Samples;Min_cycle;Max_cycle;Signal;HPM_P1;HPM_P2
2022/06/22 00:00:14;;;;;;;17.50;10.50;;;10.80;99.90;;;;;;5034702;28;20443;-75
2022/06/22 00:02:41;;;;;;;18.33;10.65;;;10.80;99.90;;;;;;5035955;28;20198;-75
2022/06/22 00:05:18;;;;;;;21.52;10.63;;;10.70;99.90;;;;;;5034448;28;20478;-74
2022/06/22 00:07:55;;;;;;;17.23;10.55;;;10.70;99.90;;;;;;5035929;28;20041;-75
2022/06/22 00:10:29;;;;;;;20.50;10.65;;;10.70;99.90;;;;;;5035827;28;20045;-75
2022/06/22 00:12:58;;;;;;;18.95;10.18;;;10.70;99.90;;;;;;5034812;28;20046;-75
2022/06/22 00:15:34;;;;;;;15.77;10.65;;;10.70;99.90;;;;;;5035711;28;20045;-75
2022/06/22 00:18:02;;;;;;;19.23;10.13;;;10.60;99.90;;;;;;5034581;28;20045;-75
2022/06/22 00:20:31;;;;;;;16.65;9.10;;;10.60;99.90;;;;;;5034318;28;20122;-75
2022/06/22 00:22:59;;;;;;;17.13;8.88;;;10.60;99.90;;;;;;5035544;28;20064;-75
2022/06/22 00:25:35;;;;;;;15.38;8.95;;;10.60;99.90;;;;;;5034195;28;20540;-75
2022/06/22 00:28:33;;;;;;;14.95;8.02;;;10.60;99.90;;;;;;5034130;28;20045;-75
2022/06/22 00:31:12;;;;;;;14.48;8.18;;;10.50;99.90;;;;;;5034037;28;20614;-75
2022/06/22 00:33:38;;;;;;;14.75;7.88;;;10.50;99.90;;;;;;5035416;28;20041;-75
2022/06/22 00:36:20;;;;;;;16.35;8.32;;;10.50;99.90;;;;;;5035262;28;20049;-75
2022/06/22 00:38:46;;;;;;;13.98;8.23;;;10.50;99.90;;;;;;5035675;28;20048;-75
2022/06/22 00:41:24;;;;;;;12.10;7.32;;;10.50;99.90;;;;;;5035246;28;20049;-75
2022/06/22 00:43:52;;;;;;;11.38;6.93;;;10.50;99.90;;;;;;5033662;28;20064;-75
2022/06/22 00:46:21;;;;;;;16.80;7.95;;;10.40;99.90;;;;;;5035116;28;20064;-75
2022/06/22 00:48:51;;;;;;;18.75;8.50;;;10.40;99.90;;;;;;5033547;28;20033;-75
2022/06/22 00:51:30;;;;;;;20.27;8.73;;;10.40;99.90;;;;;;5035056;28;20041;-75
2022/06/22 00:54:00;;;;;;;14.45;7.72;;;10.40;99.90;;;;;;5035011;28;20041;-75
2022/06/22 00:56:57;;;;;;;13.45;6.57;;;10.40;99.90;;;;;;5033922;28;20551;-75
2022/06/22 00:59:48;;;;;;;13.60;7.75;;;10.30;99.90;;;;;;5035319;28;20481;-75
2022/06/22 01:02:26;;;;;;;20.75;8.07;;;10.40;99.90;;;;;;5034795;28;20049;-75
2022/06/22 01:04:59;;;;;;;15.45;7.55;;;10.40;99.90;;;;;;5034805;28;20041;-75
2022/06/22 01:07:29;;;;;;;;;;;10.40;99.90;;;;;;5033918;28;20049;-75
2022/06/22 01:10:26;;;;;;;14.02;7.70;;;10.30;99.90;;;;;;5033360;28;20038;-75
2022/06/22 01:12:58;;;;;;;14.70;7.38;;;10.30;99.90;;;;;;5034161;28;20529;-75
2022/06/22 01:15:49;;;;;;;16.30;7.28;;;10.30;99.90;;;;;;5034346;28;20056;-75
2022/06/22 01:18:26;;;;;;;15.25;7.95;;;10.30;99.90;;;;;;5033443;28;20076;-75
2022/06/22 01:21:04;;;;;;;14.77;7.35;;;10.30;99.90;;;;;;5034529;28;20056;-75
2022/06/22 01:23:50;;;;;;;16.05;7.97;;;10.20;99.90;;;;;;5034376;28;20069;-75
2022/06/22 01:26:52;;;;;;;16.80;9.20;;;10.30;99.90;;;;;;5034988;28;20115;-74
2022/06/22 01:29:24;;;;;;;16.27;7.72;;;10.20;99.90;;;;;;5034442;28;20473;-75
2022/06/22 01:32:00;;;;;;;16.17;7.60;;;10.30;99.90;;;;;;5034303;28;20484;-75
2022/06/22 01:34:35;;;;;;;15.90;7.63;;;10.20;99.90;;;;;;5032961;28;20465;-75
2022/06/22 01:37:06;;;;;;;10.82;7.07;;;10.20;99.90;;;;;;5034221;28;20042;-75
2022/06/22 01:39:32;;;;;;;12.60;7.22;;;10.20;99.90;;;;;;5034230;28;20049;-75
2022/06/22 01:42:27;;;;;;;11.90;7.20;;;10.20;99.90;;;;;;5032861;28;20049;-75
2022/06/22 01:45:09;;;;;;;15.10;7.20;;;10.20;99.90;;;;;;5027142;28;20103;-75
2022/06/22 01:47:52;;;;;;;16.40;7.45;;;10.10;99.90;;;;;;5034134;28;20041;-75
2022/06/22 01:50:27;;;;;;;16.55;7.63;;;10.10;99.90;;;;;;5033927;28;20416;-75
2022/06/22 01:53:07;;;;;;;12.15;7.78;;;10.10;99.90;;;;;;5034048;28;20107;-75
2022/06/22 01:55:54;;;;;;;14.18;7.07;;;10.20;99.90;;;;;;5032808;28;20456;-75
2022/06/22 01:58:20;;;;;;;15.90;7.07;;;10.10;99.90;;;;;;5033910;28;20045;-75
2022/06/22 02:00:59;;;;;;;13.02;7.03;;;10.10;99.90;;;;;;5032492;28;20052;-75
2022/06/22 02:03:37;;;;;;;16.02;6.80;;;10.10;99.90;;;;;;5033805;28;20084;-75
2022/06/22 02:09:43;;;;;;;13.98;8.02;;;10.10;99.90;;;;;;4956863;28;20051;-75
2022/06/22 02:12:20;;;;;;;12.50;7.65;;;10.00;99.90;;;;;;4956527;28;20135;-75
2022/06/22 02:14:52;;;;;;;14.27;7.80;;;10.10;99.90;;;;;;5013484;28;20111;-75
2022/06/22 02:17:23;;;;;;;13.43;7.40;;;10.10;99.90;;;;;;5032645;28;20140;-75
2022/06/22 02:20:29;;;;;;;16.55;8.00;;;10.10;99.90;;;;;;5033725;28;20029;-75
2022/06/22 02:23:00;;;;;;;19.33;8.95;;;10.10;99.90;;;;;;5033638;28;20046;-75
2022/06/22 02:25:27;;;;;;;17.83;8.88;;;10.10;99.90;;;;;;5033670;28;20041;-75
2022/06/22 02:27:54;;;;;;;19.13;8.05;;;10.10;99.90;;;;;;5033444;28;20444;-75
2022/06/22 02:30:19;;;;;;;19.60;8.32;;;10.10;99.90;;;;;;5033421;28;20512;-75
2022/06/22 02:32:45;;;;;;;21.27;8.90;;;10.10;99.90;;;;;;5032252;28;20046;-75
2022/06/22 02:35:13;;;;;;;13.98;7.28;;;10.20;99.90;;;;;;5033513;28;20069;-75
2022/06/22 02:38:05;;;;;;;21.70;9.02;;;10.10;99.90;;;;;;5032087;28;20057;-75
2022/06/22 02:44:29;;;;;;;25.02;10.25;;;10.10;99.90;;;;;;5033618;28;20045;-75
2022/06/22 02:46:11;;;;;;;33.60;13.63;;;10.20;99.90;;;;;;5035297;28;20052;-75
2022/06/22 02:48:42;;;;;;;29.05;13.75;;;10.30;99.90;;;;;;5053324;28;20128;-75
2022/06/22 02:51:26;;;;;;;32.92;14.35;;;10.30;99.90;;;;;;5053352;28;20061;-75
2022/06/22 02:53:54;;;;;;;33.20;15.43;;;10.30;99.90;;;;;;5035155;28;20128;-75
2022/06/22 02:56:27;;;;;;;35.50;14.82;;;10.30;99.90;;;;;;5035070;28;20053;-75
2022/06/22 02:58:53;;;;;;;36.60;16.42;;;10.30;99.90;;;;;;5035288;28;20102;-75
2022/06/22 03:01:22;;;;;;;42.75;16.67;;;10.40;99.90;;;;;;5052560;28;20473;-75
2022/06/22 03:04:02;;;;;;;35.97;16.55;;;10.40;99.90;;;;;;5033698;28;20059;-75
2022/06/22 03:06:38;;;;;;;33.78;14.70;;;10.40;99.90;;;;;;5052444;28;20488;-75
2022/06/22 03:09:05;;;;;;;33.28;16.00;;;10.30;99.90;;;;;;5053084;28;20053;-75
2022/06/22 03:11:38;;;;;;;32.42;15.35;;;10.30;99.90;;;;;;5035172;28;20063;-75
2022/06/22 03:14:17;;;;;;;28.35;14.27;;;10.30;99.90;;;;;;5052929;28;20049;-75
2022/06/22 03:16:47;;;;;;;30.10;13.15;;;10.30;99.90;;;;;;5035053;28;20052;-75
2022/06/22 03:19:17;;;;;;;33.35;14.13;;;10.30;99.90;;;;;;5038704;28;20056;-75
2022/06/22 03:21:43;;;;;;;30.77;14.57;;;10.30;99.90;;;;;;5038999;28;20107;-75
2022/06/22 03:24:25;;;;;;;35.75;15.05;;;10.30;99.90;;;;;;5056585;28;20082;-75
2022/06/22 03:26:56;;;;;;;28.83;13.07;;;10.40;99.90;;;;;;5038530;28;20056;-75
2022/06/22 03:29:41;;;;;;;27.20;13.82;;;10.40;99.90;;;;;;5038547;28;20076;-75
2022/06/22 03:32:16;;;;;;;29.73;13.40;;;10.40;99.90;;;;;;5056438;28;20048;-75
2022/06/22 03:34:48;;;;;;;29.10;13.32;;;10.40;99.90;;;;;;5038361;28;20056;-75
2022/06/22 03:37:23;;;;;;;34.45;14.15;;;10.40;99.90;;;;;;5056123;28;20056;-75
2022/06/22 03:39:55;;;;;;;37.60;15.85;;;10.40;99.90;;;;;;5038193;28;20045;-75
2022/06/22 03:42:28;;;;;;;42.03;16.95;;;10.50;99.90;;;;;;5038492;28;20511;-75
2022/06/22 03:45:13;;;;;;;36.00;16.50;;;10.40;99.90;;;;;;5055789;28;20107;-75
2022/06/22 03:47:47;;;;;;;44.22;17.63;;;10.50;99.90;;;;;;5038279;28;20102;-75
2022/06/22 03:50:18;;;;;;;39.97;15.93;;;10.50;99.90;;;;;;5038064;28;20049;-75
2022/06/22 03:52:48;;;;;;;39.70;15.95;;;10.50;99.90;;;;;;5056053;28;20047;-75
2022/06/22 03:55:18;;;;;;;37.67;17.05;;;10.60;99.90;;;;;;5055910;28;20053;-75
2022/06/22 03:57:49;;;;;;;33.97;15.75;;;10.60;99.90;;;;;;5055752;28;20072;-75
2022/06/22 04:00:16;;;;;;;31.42;14.73;;;10.50;99.90;;;;;;5037984;28;20057;-75
2022/06/22 04:02:42;;;;;;;35.17;15.25;;;10.60;99.90;;;;;;5037929;28;20049;-75
2022/06/22 04:05:16;;;;;;;35.85;14.45;;;10.60;99.90;;;;;;5055845;28;20052;-75
2022/06/22 04:07:41;;;;;;;31.10;14.55;;;10.70;99.90;;;;;;5055794;28;20056;-75
2022/06/22 04:10:35;;;;;;;33.83;14.70;;;10.80;99.90;;;;;;5037640;28;20049;-75
2022/06/22 04:13:03;;;;;;;34.30;14.15;;;10.90;99.90;;;;;;5055647;28;20056;-75
2022/06/22 04:15:37;;;;;;;31.67;13.77;;;11.10;99.90;;;;;;5037543;28;20497;-75
2022/06/22 04:18:12;;;;;;;33.95;14.50;;;11.20;99.90;;;;;;5037503;28;20049;-75
2022/06/22 04:20:51;;;;;;;30.38;13.98;;;11.30;99.90;;;;;;5037421;28;20063;-75
2022/06/22 04:23:43;;;;;;;30.90;13.95;;;11.40;99.90;;;;;;5055325;28;20045;-76
2022/06/22 04:26:19;;;;;;;33.67;14.52;;;11.50;99.90;;;;;;5037446;28;20123;-75
2022/06/22 04:28:48;;;;;;;31.90;15.23;;;11.60;99.90;;;;;;5055150;28;20496;-75
2022/06/22 04:31:29;;;;;;;40.53;19.02;;;11.80;99.90;;;;;;5055223;28;20057;-75
2022/06/22 04:34:26;;;;;;;35.80;17.25;;;12.00;99.90;;;;;;5055295;28;20033;-75
2022/06/22 04:36:56;;;;;;;32.70;16.00;;;12.20;99.90;;;;;;5055219;28;20056;-75
2022/06/22 04:39:31;;;;;;;36.42;16.90;;;12.40;99.90;;;;;;5055133;28;20488;-75
2022/06/22 04:42:00;;;;;;;55.72;21.92;;;12.70;99.90;;;;;;5037281;28;20396;-75
2022/06/22 04:44:30;;;;;;;48.13;22.48;;;13.00;99.90;;;;;;5054718;28;20059;-76
2022/06/22 04:47:06;;;;;;;45.40;21.02;;;13.10;99.90;;;;;;5037029;28;20377;-76
2022/06/22 04:49:37;;;;;;;49.30;20.13;;;13.40;99.90;;;;;;5036861;28;20049;-75
2022/06/22 04:52:18;;;;;;;38.95;17.90;;;13.50;99.90;;;;;;5054971;28;20029;-75
2022/06/22 04:54:48;;;;;;;39.63;18.08;;;13.70;99.90;;;;;;5054585;28;20492;-75
2022/06/22 04:57:35;;;;;;;50.28;20.60;;;14.00;99.90;;;;;;5037095;28;20045;-75
2022/06/22 05:00:05;;;;;;;53.97;21.38;;;14.20;99.90;;;;;;5054835;28;20052;-75
2022/06/22 05:02:37;;;;;;;44.05;18.75;;;14.30;99.90;;;;;;5036525;28;20488;-75
2022/06/22 05:05:26;;;;;;;42.47;20.10;;;14.50;99.90;;;;;;5054342;28;20400;-76
2022/06/22 05:07:54;;;;;;;50.60;20.30;;;14.60;99.90;;;;;;5054116;28;20564;-75
2022/06/22 05:10:50;;;;;;;38.90;16.52;;;14.80;99.90;;;;;;5054193;28;20496;-75
2022/06/22 05:13:25;;;;;;;28.08;13.68;;;14.90;99.90;;;;;;5036688;28;20044;-76
2022/06/22 05:15:54;;;;;;;28.75;12.85;;;15.00;99.90;;;;;;5054447;28;20052;-76
2022/06/22 05:18:30;;;;;;;28.48;12.90;;;15.10;99.90;;;;;;5036640;28;20056;-76
2022/06/22 05:21:09;;;;;;;30.52;11.75;;;15.20;99.90;;;;;;5036322;28;20044;-76
2022/06/22 05:23:35;;;;;;;28.27;12.15;;;15.40;99.90;;;;;;5054056;28;20053;-76
2022/06/22 05:26:05;;;;;;;28.33;12.05;;;15.60;99.90;;;;;;5054350;28;20135;-76
2022/06/22 05:28:48;;;;;;;24.05;11.38;;;15.70;99.90;;;;;;5054529;28;20126;-76
2022/06/22 05:31:44;;;;;;;22.58;10.25;;;15.80;99.90;;;;;;5036183;28;20064;-76
2022/06/22 05:34:24;;;;;;;21.42;10.88;;;16.00;99.90;;;;;;5034390;28;20399;-76
2022/06/22 05:36:56;;;;;;;26.25;10.48;;;16.20;99.90;;;;;;5053856;28;20587;-76
2022/06/22 05:39:22;;;;;;;31.33;11.85;;;16.30;99.90;;;;;;5053731;28;20041;-76
2022/06/22 05:41:48;;;;;;;18.83;10.68;;;16.50;99.90;;;;;;5053851;28;20103;-76
2022/06/22 05:44:17;;;;;;;21.80;10.93;;;16.60;99.90;;;;;;5035657;28;20061;-76
2022/06/22 05:46:55;;;;;;;24.17;9.85;;;16.80;99.90;;;;;;5053875;28;20102;-76
2022/06/22 05:49:26;;;;;;;23.05;10.65;;;16.90;99.90;;;;;;5054343;28;20065;-76
2022/06/22 05:52:09;;;;;;;27.33;10.82;;;17.10;99.90;;;;;;5036069;28;20098;-76
2022/06/22 05:54:41;;;;;;;;;;;17.20;99.90;;;;;;5036372;28;20447;-76
2022/06/22 05:57:20;;;;;;;28.23;10.50;;;17.30;99.90;;;;;;5053788;28;19921;-76
2022/06/22 06:00:16;;;;;;;26.15;11.07;;;17.40;99.90;;;;;;5035920;28;20057;-76
2022/06/22 06:02:52;;;;;;;21.40;11.15;;;17.50;99.90;;;;;;5053540;28;20041;-76
2022/06/22 06:05:43;;;;;;;27.77;10.88;;;17.60;99.90;;;;;;5053532;28;20115;-76
2022/06/22 06:08:17;;;;;;;23.67;11.10;;;17.70;99.90;;;;;;5035788;28;20123;-76
2022/06/22 06:10:43;;;;;;;25.02;10.88;;;17.80;99.90;;;;;;5053604;28;20044;-76
2022/06/22 06:13:39;;;;;;;22.95;11.65;;;18.00;99.90;;;;;;5053493;28;20037;-76
2022/06/22 06:16:13;;;;;;;24.67;10.95;;;18.00;99.90;;;;;;5035767;28;20116;-76
2022/06/22 06:18:41;;;;;;;22.60;10.55;;;18.20;99.90;;;;;;5035499;28;20052;-76
2022/06/22 06:21:13;;;;;;;21.67;11.40;;;18.30;99.90;;;;;;5053486;28;20037;-76
2022/06/22 06:23:54;;;;;;;29.20;11.88;;;18.50;99.90;;;;;;5053163;28;20404;-76
2022/06/22 06:29:38;;;;;;;26.80;12.53;;;18.60;99.90;;;;;;5053116;28;20507;-76
2022/06/22 06:32:27;;;;;;;29.23;12.25;;;18.80;99.90;;;;;;5035466;28;20049;-76
2022/06/22 06:35:02;;;;;;;28.80;12.70;;;18.90;99.90;;;;;;5035571;28;20064;-76
2022/06/22 06:38:04;;;;;;;27.92;12.40;;;19.00;99.90;;;;;;5035268;28;20044;-76
2022/06/22 06:40:49;;;;;;;27.25;13.05;;;19.10;99.90;;;;;;5053317;28;20048;-76
2022/06/22 06:43:39;;;;;;;24.88;12.07;;;19.20;99.90;;;;;;5035213;28;20053;-76
2022/06/22 06:46:27;;;;;;;29.83;12.82;;;19.30;99.90;;;;;;5035116;28;20052;-76
2022/06/22 06:49:18;;;;;;;33.90;13.88;;;19.50;99.90;;;;;;5035148;28;20056;-76
2022/06/22 06:51:53;;;;;;;32.63;13.25;;;19.60;99.90;;;;;;5026336;28;20518;-76
2022/06/22 06:54:54;;;;;;;24.17;12.55;;;19.70;99.90;;;;;;5039205;28;20063;-76
2022/06/22 06:57:22;;;;;;;27.17;13.70;;;19.90;99.90;;;;;;5046066;28;20091;-76
2022/06/22 06:59:53;;;;;;;34.08;15.63;;;20.00;99.90;;;;;;5038898;28;20056;-76
2022/06/22 07:02:31;;;;;;;35.42;14.90;;;20.00;99.90;;;;;;5057028;28;20033;-76
2022/06/22 07:05:03;;;;;;;30.65;14.77;;;20.10;99.90;;;;;;5056975;28;20044;-76
2022/06/22 07:08:00;;;;;;;29.55;14.30;;;20.00;99.90;;;;;;5057163;28;20094;-76
2022/06/22 07:10:38;;;;;;;33.47;13.82;;;20.10;99.90;;;;;;5062775;28;20044;-76
2022/06/22 07:13:30;;;;;;;30.40;13.93;;;20.00;99.90;;;;;;5059302;28;20572;-76
2022/06/22 07:16:01;;;;;;;42.15;15.75;;;20.20;99.90;;;;;;5040495;28;20106;-75
2022/06/22 07:18:35;;;;;;;28.90;14.20;;;20.10;99.90;;;;;;5067399;28;20434;-76
2022/06/22 07:21:12;;;;;;;33.00;15.27;;;20.20;99.90;;;;;;5076277;28;20480;-76
2022/06/22 07:23:48;;;;;;;34.13;14.90;;;20.20;99.90;;;;;;5076437;28;20041;-76
2022/06/22 07:26:19;;;;;;;29.05;13.20;;;20.30;99.90;;;;;;5058457;28;20040;-76
2022/06/22 07:28:52;;;;;;;31.43;14.33;;;20.60;99.90;;;;;;5076329;28;20041;-76
2022/06/22 07:31:26;;;;;;;;;;;20.70;99.90;;;;;;5076503;28;20095;-75
2022/06/22 07:34:00;;;;;;;31.48;13.23;;;20.60;99.90;;;;;;5076142;28;19973;-76
2022/06/22 07:36:36;;;;;;;29.23;13.43;;;20.60;99.90;;;;;;5075951;28;20480;-76
2022/06/22 07:39:14;;;;;;;28.40;13.68;;;20.80;99.90;;;;;;5057668;28;20056;-76
2022/06/22 07:41:41;;;;;;;38.05;15.88;;;20.90;99.90;;;;;;5058224;28;20080;-76
2022/06/22 07:44:18;;;;;;;39.30;15.13;;;20.80;99.90;;;;;;5075742;28;20052;-76
2022/06/22 07:47:00;;;;;;;30.65;13.45;;;20.90;99.90;;;;;;5057872;28;20060;-76
2022/06/22 07:49:33;;;;;;;35.47;14.77;;;21.10;99.90;;;;;;5057696;28;20055;-75
2022/06/22 07:52:01;;;;;;;29.13;13.82;;;21.20;99.90;;;;;;5057621;28;20056;-76
2022/06/22 07:54:36;;;;;;;27.85;13.45;;;21.10;99.90;;;;;;5057681;28;20040;-75
2022/06/22 07:57:26;;;;;;;31.55;13.57;;;21.20;99.90;;;;;;5075647;28;20056;-75
2022/06/22 08:00:04;;;;;;;25.73;13.35;;;21.20;99.90;;;;;;5075474;28;20037;-75
2022/06/22 08:02:38;;;;;;;33.78;13.43;;;21.30;99.90;;;;;;5057549;28;20123;-75
2022/06/22 08:05:11;;;;;;;31.00;13.07;;;21.40;99.90;;;;;;5057542;28;20051;-76
2022/06/22 08:07:52;;;;;;;27.65;12.80;;;21.60;99.90;;;;;;5057343;28;20037;-76
2022/06/22 08:10:38;;;;;;;30.45;12.90;;;21.60;99.90;;;;;;5057214;28;20041;-79
2022/06/22 08:13:14;;;;;;;29.48;13.73;;;21.60;99.90;;;;;;5057686;28;20079;-77
2022/06/22 08:15:49;;;;;;;26.38;12.98;;;21.60;99.90;;;;;;5057149;28;20556;-76
2022/06/22 08:18:16;;;;;;;27.08;12.82;;;21.60;99.90;;;;;;5057290;28;20051;-76
2022/06/22 08:20:46;;;;;;;29.30;12.40;;;21.70;99.90;;;;;;5075142;28;20048;-76
2022/06/22 08:23:19;;;;;;;29.52;13.68;;;21.70;99.90;;;;;;5059276;28;20407;-76
2022/06/22 08:25:48;;;;;;;37.83;12.80;;;21.50;99.90;;;;;;5072194;28;20040;-76
2022/06/22 08:28:17;;;;;;;27.88;11.88;;;21.40;99.90;;;;;;5071957;28;20036;-76
2022/06/22 08:30:43;;;;;;;33.33;12.95;;;21.70;99.90;;;;;;5065148;28;20044;-76
2022/06/22 08:33:14;;;;;;;30.63;12.40;;;21.90;99.90;;;;;;5069834;28;20503;-77
2022/06/22 08:35:52;;;;;;;30.70;13.68;;;21.70;99.90;;;;;;5073681;28;20056;-77
2022/06/22 08:38:36;;;;;;;25.17;11.65;;;21.90;99.90;;;;;;5073503;28;20119;-77
2022/06/22 08:41:20;;;;;;;26.58;11.75;;;21.90;99.90;;;;;;5063284;28;20041;-76
2022/06/22 08:44:24;;;;;;;27.17;10.88;;;21.90;99.90;;;;;;5041788;28;20045;-77
2022/06/22 08:47:06;;;;;;;23.63;11.05;;;22.00;99.90;;;;;;5042701;28;20107;-77
2022/06/22 08:49:38;;;;;;;26.73;11.18;;;22.00;99.90;;;;;;5051606;28;20481;-77
2022/06/22 08:52:12;;;;;;;29.17;10.93;;;22.10;99.90;;;;;;5053055;28;20057;-77
2022/06/22 08:55:14;;;;;;;24.15;9.70;;;22.20;99.90;;;;;;5053225;28;20033;-77
2022/06/22 08:58:11;;;;;;;26.25;11.70;;;22.30;99.90;;;;;;5053495;28;20049;-77
2022/06/22 09:00:54;;;;;;;28.23;11.00;;;22.30;99.90;;;;;;5052449;28;20045;-76
2022/06/22 09:04:01;;;;;;;19.95;10.60;;;22.30;99.90;;;;;;5033272;28;20049;-77
2022/06/22 09:06:44;;;;;;;26.92;10.50;;;22.30;99.90;;;;;;5015108;28;20095;-77
2022/06/22 09:09:22;;;;;;;;;;;22.40;99.90;;;;;;5038170;28;20029;-77
2022/06/22 09:12:14;;;;;;;27.77;10.93;;;22.60;99.90;;;;;;5051113;28;19942;-78
2022/06/22 09:14:49;;;;;;;32.28;11.73;;;22.60;99.90;;;;;;5051682;28;20045;-78
2022/06/22 09:17:40;;;;;;;21.08;10.27;;;22.90;99.90;;;;;;5054362;28;20080;-77
2022/06/22 09:20:40;;;;;;;22.00;11.23;;;23.10;99.90;;;;;;5054260;28;20052;-77
2022/06/22 09:23:32;;;;;;;31.70;11.77;;;23.00;99.90;;;;;;5053696;28;20053;-78
2022/06/22 09:26:27;;;;;;;28.30;12.27;;;23.20;99.90;;;;;;5051962;28;20060;-78
2022/06/22 09:29:37;;;;;;;27.33;12.57;;;23.30;99.90;;;;;;5052963;28;20057;-78
2022/06/22 09:32:28;;;;;;;22.52;11.85;;;23.50;99.90;;;;;;5031652;28;20126;-77
2022/06/22 09:35:15;;;;;;;23.63;11.18;;;23.50;99.90;;;;;;5051413;28;20064;-77
2022/06/22 09:37:59;;;;;;;29.02;12.65;;;23.50;99.90;;;;;;5052389;28;20056;-77
2022/06/22 09:40:54;;;;;;;26.23;11.65;;;23.50;99.90;;;;;;5053582;28;20110;-77
2022/06/22 09:43:26;;;;;;;24.00;11.52;;;23.40;99.90;;;;;;5050296;28;20056;-77
2022/06/22 09:46:13;;;;;;;26.02;11.77;;;23.40;99.90;;;;;;5060408;28;20508;-78
2022/06/22 09:48:54;;;;;;;26.15;13.35;;;23.20;99.90;;;;;;5051826;28;20132;-77
2022/06/22 09:51:41;;;;;;;25.90;12.18;;;23.30;99.90;;;;;;5052924;28;20106;-76
2022/06/22 09:58:06;;;;;;;27.63;11.82;;;23.50;99.90;;;;;;5053639;28;20068;-77
2022/06/22 10:00:55;;;;;;;30.50;14.07;;;23.50;99.90;;;;;;5053306;28;20055;-76
2022/06/22 10:03:51;;;;;;;27.30;12.43;;;23.40;99.90;;;;;;5053548;28;20041;-78
2022/06/22 10:06:35;;;;;;;28.60;12.70;;;23.30;99.90;;;;;;5052668;28;20053;-87
2022/06/22 10:09:25;;;;;;;23.95;11.43;;;23.40;99.90;;;;;;5051783;28;20403;-86
2022/06/22 10:12:20;;;;;;;28.73;13.25;;;23.30;99.90;;;;;;5051966;28;20041;-75
2022/06/22 10:15:01;;;;;;;25.75;11.43;;;22.90;99.90;;;;;;5052227;28;20053;-75
2022/06/22 10:17:47;;;;;;;26.33;12.45;;;23.20;99.90;;;;;;5052097;28;20120;-75
2022/06/22 10:20:18;;;;;;;22.48;12.60;;;23.30;99.90;;;;;;5053406;28;20053;-75
2022/06/22 10:23:07;;;;;;;24.55;10.85;;;23.10;99.90;;;;;;5052090;28;20061;-75
2022/06/22 10:25:38;;;;;;;29.80;11.88;;;23.30;99.90;;;;;;5053329;28;20044;-83
2022/06/22 10:28:10;;;;;;;29.73;12.18;;;23.10;99.90;;;;;;5055961;28;20041;-85
2022/06/22 10:31:03;;;;;;;22.92;10.73;;;23.20;99.90;;;;;;5055822;28;20049;-75
2022/06/22 10:33:53;;;;;;;20.20;10.63;;;23.30;99.90;;;;;;5057115;28;20084;-75
2022/06/22 10:36:35;;;;;;;23.38;10.75;;;23.60;99.90;;;;;;5057153;28;20056;-76
2022/06/22 10:39:31;;;;;;;24.92;12.23;;;23.50;99.90;;;;;;5056088;28;20052;-76
2022/06/22 10:45:20;;;;;;;25.83;11.18;;;23.70;99.90;;;;;;5055533;28;20140;-76
2022/06/22 10:48:20;;;;;;;24.42;11.43;;;23.50;99.90;;;;;;5049060;28;20178;-76
2022/06/22 10:51:03;;;;;;;19.63;10.98;;;23.60;99.90;;;;;;5037002;28;20060;-75
2022/06/22 10:53:52;;;;;;;24.00;11.05;;;23.80;99.90;;;;;;5036794;28;20489;-76
2022/06/22 10:56:43;;;;;;;20.25;10.68;;;23.90;99.90;;;;;;5037039;28;20077;-76
2022/06/22 10:59:12;;;;;;;17.25;10.57;;;23.90;99.90;;;;;;5036790;28;20052;-76
2022/06/22 11:02:15;;;;;;;22.13;9.88;;;23.90;99.90;;;;;;5035601;28;20072;-76
2022/06/22 11:04:59;;;;;;;26.05;10.77;;;24.10;99.90;;;;;;5033507;28;20516;-76
2022/06/22 11:07:51;;;;;;;30.23;11.60;;;24.00;99.90;;;;;;5035494;28;20053;-76
2022/06/22 11:10:25;;;;;;;21.63;10.67;;;24.20;99.90;;;;;;5035173;28;20488;-76
2022/06/22 11:13:25;;;;;;;22.65;10.80;;;23.90;99.90;;;;;;5035193;28;20080;-76
2022/06/22 11:16:03;;;;;;;22.33;10.07;;;24.10;99.90;;;;;;5017173;28;20060;-76
2022/06/22 11:18:56;;;;;;;25.50;10.85;;;24.60;99.90;;;;;;5035145;28;20128;-76
2022/06/22 11:21:24;;;;;;;19.92;9.45;;;24.60;99.90;;;;;;5036385;28;20045;-76
2022/06/22 11:24:03;;;;;;;19.77;10.43;;;24.60;99.90;;;;;;5036059;28;20396;-76
2022/06/22 11:33:14;;;;;;;21.40;8.80;;;25.00;99.90;;;;;;5034803;28;20049;-76
2022/06/22 11:36:03;;;;;;;17.80;8.38;;;25.00;99.90;;;;;;5036329;28;20099;-76
2022/06/22 11:39:06;;;;;;;21.63;8.82;;;25.20;99.90;;;;;;5033787;28;20054;-76
2022/06/22 11:41:52;;;;;;;22.15;8.77;;;25.10;99.90;;;;;;5036175;28;20046;-76
2022/06/22 11:44:29;;;;;;;22.23;9.20;;;24.80;99.90;;;;;;5034442;28;20068;-76
2022/06/22 11:46:58;;;;;;;18.00;8.35;;;24.60;99.90;;;;;;5034806;28;20148;-76
2022/06/22 11:49:48;;;;;;;16.98;8.52;;;24.80;99.90;;;;;;5034455;28;20103;-77
2022/06/22 11:52:51;;;;;;;19.17;9.52;;;24.80;99.90;;;;;;5034741;28;20100;-77
2022/06/22 11:55:26;;;;;;;19.95;9.70;;;25.00;99.90;;;;;;5034307;28;20120;-76
2022/06/22 11:58:06;;;;;;;19.92;9.07;;;24.50;99.90;;;;;;5035894;28;20053;-77
2022/06/22 12:01:01;;;;;;;17.80;9.40;;;24.50;99.90;;;;;;5034597;28;20489;-76
2022/06/22 12:03:36;;;;;;;17.70;9.25;;;24.80;99.90;;;;;;5035815;28;20049;-76
2022/06/22 12:06:29;;;;;;;18.38;9.23;;;24.40;99.90;;;;;;5035738;28;20046;-77
2022/06/22 12:09:32;;;;;;;16.40;9.32;;;24.60;99.90;;;;;;5035460;28;20049;-77
2022/06/22 12:12:17;;;;;;;19.65;8.75;;;24.50;99.90;;;;;;5034116;28;20163;-76
2022/06/22 12:15:06;;;;;;;17.65;8.60;;;24.70;99.90;;;;;;5034304;28;20052;-76
2022/06/22 12:18:00;;;;;;;18.23;9.20;;;24.60;99.90;;;;;;5034062;28;20483;-77
2022/06/22 12:20:47;;;;;;;19.33;8.90;;;24.40;99.90;;;;;;5034299;28;20063;-77
2022/06/22 12:23:25;;;;;;;23.17;9.52;;;24.50;99.90;;;;;;5034152;28;20055;-76
2022/06/22 12:26:08;;;;;;;15.40;7.95;;;24.80;99.90;;;;;;5034066;28;20436;-76
2022/06/22 12:28:55;;;;;;;21.92;8.45;;;24.80;99.90;;;;;;5035252;28;20053;-76
2022/06/22 12:31:23;;;;;;;15.68;8.70;;;24.80;99.90;;;;;;5033685;28;20455;-76
2022/06/22 12:34:02;;;;;;;14.85;8.57;;;24.80;99.90;;;;;;5035169;28;20046;-77
2022/06/22 12:36:42;;;;;;;19.75;9.40;;;24.90;99.90;;;;;;5035188;28;20046;-77
2022/06/22 12:39:28;;;;;;;17.30;8.48;;;24.80;99.90;;;;;;5033761;28;20053;-78
2022/06/22 12:42:18;;;;;;;23.10;9.40;;;24.90;99.90;;;;;;5034848;28;20095;-78
2022/06/22 12:45:19;;;;;;;18.52;7.95;;;24.80;99.90;;;;;;5047810;28;20131;-78
2022/06/22 12:48:00;;;;;;;23.50;9.32;;;25.00;99.90;;;;;;5037080;28;20071;-78
2022/06/22 12:50:50;;;;;;;21.55;7.97;;;25.00;99.90;;;;;;5036391;28;20520;-77
2022/06/22 12:53:30;;;;;;;18.13;8.68;;;25.00;99.90;;;;;;5036670;28;20051;-78
2022/06/22 12:56:08;;;;;;;16.73;8.00;;;25.00;99.90;;;;;;5036600;28;20049;-75
2022/06/22 12:58:44;;;;;;;17.38;8.85;;;24.90;99.90;;;;;;5036805;28;20048;-76
2022/06/22 13:01:10;;;;;;;31.48;9.82;;;24.90;99.90;;;;;;5054639;28;20040;-77
2022/06/22 13:03:42;;;;;;;25.60;17.33;;;24.80;99.90;;;;;;5036717;28;20126;-76
2022/06/22 13:06:08;;;;;;;38.13;19.30;;;24.50;99.90;;;;;;5054445;28;20068;-76
2022/06/22 13:08:34;;;;;;;36.40;22.48;;;24.50;99.90;;;;;;5036713;28;20388;-75
2022/06/22 13:11:03;;;;;;;33.30;18.42;;;24.70;99.90;;;;;;5054127;28;20519;-75
2022/06/22 13:13:51;;;;;;;43.90;25.63;;;24.60;99.90;;;;;;5036478;28;20243;-74
2022/06/22 13:16:28;;;;;;;19.08;9.57;;;24.40;99.90;;;;;;5036157;28;20060;-74
2022/06/22 13:19:06;;;;;;;23.15;11.27;;;24.50;99.90;;;;;;5036407;28;20049;-74
2022/06/22 13:21:42;;;;;;;21.25;8.55;;;24.50;99.90;;;;;;5036156;28;20073;-75
2022/06/22 13:24:19;;;;;;;20.13;8.23;;;24.40;99.90;;;;;;5053938;28;20045;-75
2022/06/22 13:27:09;;;;;;;13.13;6.68;;;24.40;99.90;;;;;;5036236;28;20516;-74
2022/06/22 13:29:58;;;;;;;20.55;7.72;;;24.40;99.90;;;;;;5054042;28;20071;-75
2022/06/22 13:32:26;;;;;;;17.95;7.22;;;24.40;99.90;;;;;;5036218;28;20044;-74
2022/06/22 13:35:03;;;;;;;22.20;9.30;;;24.20;99.90;;;;;;5054004;28;20044;-74
2022/06/22 13:37:53;;;;;;;14.93;7.20;;;24.40;99.90;;;;;;5036041;28;20124;-75
2022/06/22 13:40:39;;;;;;;15.93;7.10;;;24.50;99.90;;;;;;5035778;28;20045;-75
2022/06/22 13:43:16;;;;;;;16.70;7.63;;;24.40;99.90;;;;;;5053583;28;20569;-75
2022/06/22 13:45:54;;;;;;;16.13;7.10;;;24.10;99.90;;;;;;5035535;28;20049;-74
2022/06/22 13:48:38;;;;;;;14.15;6.40;;;24.40;99.90;;;;;;5035882;28;20057;-77
2022/06/22 13:51:40;;;;;;;23.33;7.80;;;24.40;99.90;;;;;;5035515;28;20511;-74
2022/06/22 13:54:34;;;;;;;10.73;6.70;;;24.20;99.90;;;;;;5035585;28;20067;-75